createdAt,value
2022-12-04T00:01:28.478Z,3.16
2022-12-04T00:03:59.678Z,3.39
2022-12-04T00:06:28.425Z,3.41
2022-12-04T00:08:56.151Z,3.39
2022-12-04T00:11:28.340Z,3.17
2022-12-04T00:14:04.551Z,3.34
2022-12-04T00:16:33.724Z,3.13
2022-12-04T00:19:00.720Z,3.08
2022-12-04T00:21:27.689Z,3.43
2022-12-04T00:23:55.006Z,3.60
2022-12-04T00:26:25.887Z,3.44
2022-12-04T00:28:53.953Z,3.36
2022-12-04T00:31:27.512Z,3.50
2022-12-04T00:33:57.344Z,3.56
2022-12-04T00:36:28.779Z,3.52
2022-12-04T00:38:55.959Z,3.09
2022-12-04T00:41:26.279Z,2.90
2022-12-04T00:43:53.795Z,3.08
2022-12-04T00:46:21.350Z,3.15
2022-12-04T00:48:48.555Z,3.18
2022-12-04T00:51:25.266Z,3.05
2022-12-04T00:53:56.375Z,3.30
2022-12-04T00:56:30.619Z,3.30
2022-12-04T00:59:00.040Z,3.35
2022-12-04T01:01:28.473Z,3.41
2022-12-04T01:03:58.677Z,2.70
2022-12-04T01:06:32.777Z,3.00
2022-12-04T01:09:01.882Z,3.13
2022-12-04T01:11:33.027Z,3.27
2022-12-04T01:14:01.064Z,3.19
2022-12-04T01:16:32.387Z,3.17
2022-12-04T01:19:00.469Z,3.08
2022-12-04T01:21:30.051Z,2.87
2022-12-04T01:23:59.894Z,3.04
2022-12-04T01:26:31.842Z,3.32
2022-12-04T01:28:59.175Z,3.26
2022-12-04T01:31:26.534Z,3.16
2022-12-04T01:33:54.186Z,3.12
2022-12-04T01:36:29.019Z,3.34
2022-12-04T01:39:03.044Z,3.32
2022-12-04T01:41:32.270Z,3.18
2022-12-04T01:44:15.694Z,3.25
2022-12-04T01:46:46.502Z,3.54
2022-12-04T01:49:22.812Z,3.40
2022-12-04T01:51:56.601Z,3.34
2022-12-04T01:54:36.030Z,3.12
2022-12-04T01:57:26.118Z,3.22
2022-12-04T02:00:00.585Z,3.40
2022-12-04T02:02:37.314Z,3.32
2022-12-04T02:05:08.205Z,3.52
2022-12-04T02:07:36.254Z,3.25
2022-12-04T02:10:08.701Z,3.32
2022-12-04T02:12:50.061Z,3.38
2022-12-04T02:15:39.915Z,3.20
2022-12-04T02:18:39.044Z,3.27
2022-12-04T02:21:22.254Z,3.30
2022-12-04T02:24:10.269Z,3.24
2022-12-04T02:26:41.749Z,3.16
2022-12-04T02:29:46.708Z,3.03
2022-12-04T02:32:42.530Z,3.38
2022-12-04T02:35:46.720Z,3.29
2022-12-04T02:38:54.171Z,2.97
2022-12-04T02:41:31.354Z,3.14
2022-12-04T02:44:09.579Z,3.20
2022-12-04T02:46:50.199Z,3.30
2022-12-04T02:49:25.211Z,3.19
2022-12-04T02:51:55.497Z,3.46
2022-12-04T02:54:53.165Z,3.30
2022-12-04T02:57:30.308Z,3.22
2022-12-04T02:59:59.557Z,3.21
2022-12-04T03:02:53.354Z,3.15
2022-12-04T03:05:29.525Z,3.01
2022-12-04T03:08:02.729Z,3.21
2022-12-04T03:10:52.450Z,3.36
2022-12-04T03:13:29.180Z,3.19
2022-12-04T03:16:16.171Z,3.18
2022-12-04T03:18:49.860Z,3.27
2022-12-04T03:21:21.286Z,3.10
2022-12-04T03:23:57.732Z,3.23
2022-12-04T03:26:38.956Z,3.46
2022-12-04T03:29:23.745Z,3.33
2022-12-04T03:32:13.767Z,3.14
2022-12-04T03:35:03.346Z,3.16
2022-12-04T03:38:28.346Z,3.41
2022-12-04T03:41:06.801Z,3.36
2022-12-04T03:43:48.620Z,3.51
2022-12-04T03:46:22.309Z,3.26
2022-12-04T03:48:58.604Z,3.27
2022-12-04T03:51:39.058Z,3.45
2022-12-04T03:54:52.460Z,3.32
2022-12-04T03:57:29.487Z,3.40
2022-12-04T04:00:11.953Z,3.43
2022-12-04T04:02:49.279Z,3.58
2022-12-04T04:05:17.870Z,3.67
2022-12-04T04:07:56.809Z,3.66
2022-12-04T04:10:26.655Z,3.73
2022-12-04T04:13:20.468Z,3.38
2022-12-04T04:16:12.287Z,3.48
2022-12-04T04:19:00.591Z,3.45
2022-12-04T04:21:52.403Z,3.23
2022-12-04T04:24:39.177Z,3.43
2022-12-04T04:27:06.250Z,3.41
2022-12-04T04:29:33.449Z,3.45
2022-12-04T04:32:10.504Z,3.39
2022-12-04T04:35:00.877Z,3.46
2022-12-04T04:38:29.858Z,3.62
2022-12-04T04:41:22.959Z,3.62
2022-12-04T04:44:07.083Z,3.58
2022-12-04T04:46:39.201Z,3.34
2022-12-04T04:49:11.122Z,3.38
2022-12-04T04:51:38.615Z,3.46
2022-12-04T04:54:10.680Z,3.53
2022-12-04T04:56:43.099Z,3.61
2022-12-04T04:59:11.496Z,3.74
2022-12-04T05:01:43.117Z,3.58
2022-12-04T05:04:13.458Z,3.74
2022-12-04T05:06:40.585Z,3.70
2022-12-04T05:09:07.535Z,3.42
2022-12-04T05:11:34.549Z,3.18
2022-12-04T05:14:01.626Z,3.53
2022-12-04T05:16:28.961Z,3.80
2022-12-04T05:19:14.277Z,3.80
2022-12-04T05:21:43.437Z,3.77
2022-12-04T05:24:10.400Z,3.87
2022-12-04T05:26:37.513Z,3.79
2022-12-04T05:29:06.892Z,3.84
2022-12-04T05:31:36.341Z,3.95
2022-12-04T05:34:07.970Z,3.74
2022-12-04T05:36:37.226Z,3.83
2022-12-04T05:39:06.615Z,3.87
2022-12-04T05:41:33.640Z,3.64
2022-12-04T05:44:03.066Z,3.82
2022-12-04T05:46:30.139Z,3.80
2022-12-04T05:48:58.493Z,4.02
2022-12-04T05:51:27.783Z,3.79
2022-12-04T05:53:56.985Z,4.00
2022-12-04T05:56:26.210Z,4.00
2022-12-04T05:58:55.207Z,4.04
2022-12-04T06:01:24.915Z,3.93
2022-12-04T06:03:52.339Z,4.03
2022-12-04T06:06:23.242Z,3.84
2022-12-04T06:08:56.475Z,4.09
2022-12-04T06:11:27.438Z,3.91
2022-12-04T06:13:54.897Z,4.10
2022-12-04T06:16:28.596Z,4.08
2022-12-04T06:19:02.251Z,3.93
2022-12-04T06:21:34.969Z,4.30
2022-12-04T06:24:02.841Z,4.21
2022-12-04T06:26:34.902Z,4.20
2022-12-04T06:29:04.198Z,3.95
2022-12-04T06:31:36.089Z,3.84
2022-12-04T06:34:03.098Z,3.78
2022-12-04T06:36:30.553Z,3.88
2022-12-04T06:39:01.167Z,3.94
2022-12-04T06:41:29.539Z,4.04
2022-12-04T06:43:56.926Z,3.89
2022-12-04T06:46:30.938Z,3.98
2022-12-04T06:49:02.469Z,3.95
2022-12-04T06:51:36.630Z,4.16
2022-12-04T06:54:06.551Z,4.28
2022-12-04T06:56:34.664Z,4.28
2022-12-04T06:59:04.991Z,4.12
2022-12-04T07:01:34.857Z,4.08
2022-12-04T07:04:04.767Z,4.13
2022-12-04T07:06:36.739Z,4.30
2022-12-04T07:09:07.060Z,4.25
2022-12-04T07:11:34.401Z,4.30
2022-12-04T07:14:04.152Z,4.19
2022-12-04T07:16:39.995Z,4.34
2022-12-04T07:19:12.797Z,4.01
2022-12-04T07:21:40.499Z,4.12
2022-12-04T07:24:07.768Z,4.20
2022-12-04T07:26:34.871Z,4.40
2022-12-04T07:29:01.862Z,4.24
2022-12-04T07:31:30.329Z,4.35
2022-12-04T07:34:02.527Z,4.26
2022-12-04T07:36:34.142Z,4.34
2022-12-04T07:39:03.682Z,4.51
2022-12-04T07:41:35.365Z,4.75
2022-12-04T07:44:04.726Z,4.57
2022-12-04T07:46:34.393Z,4.49
2022-12-04T07:49:01.831Z,4.47
2022-12-04T07:51:30.184Z,4.47
2022-12-04T07:54:02.880Z,4.47
2022-12-04T07:56:34.551Z,4.39
2022-12-04T07:59:04.714Z,4.28
2022-12-04T08:01:32.210Z,4.49
2022-12-04T08:04:04.403Z,4.37
2022-12-04T08:06:35.266Z,4.17
2022-12-04T08:09:07.928Z,4.26
2022-12-04T08:11:36.996Z,4.26
2022-12-04T08:14:14.832Z,4.35
2022-12-04T08:16:41.856Z,4.43
2022-12-04T08:19:08.889Z,4.42
2022-12-04T08:21:35.878Z,4.55
2022-12-04T08:24:05.949Z,4.54
2022-12-04T08:26:36.018Z,4.56
2022-12-04T08:29:04.835Z,4.36
2022-12-04T08:31:36.473Z,4.39
2022-12-04T08:34:08.071Z,4.42
2022-12-04T08:36:37.848Z,4.35
2022-12-04T08:39:05.165Z,4.39
2022-12-04T08:41:34.693Z,4.57
2022-12-04T08:44:01.635Z,4.58
2022-12-04T08:46:31.345Z,4.63
2022-12-04T08:48:58.821Z,4.51
2022-12-04T08:51:29.951Z,4.68
2022-12-04T08:54:00.168Z,4.56
2022-12-04T08:56:29.952Z,4.31
2022-12-04T08:58:58.803Z,4.42
2022-12-04T09:01:29.741Z,4.48
2022-12-04T09:03:57.209Z,4.61
2022-12-04T09:06:29.359Z,4.70
2022-12-04T09:08:59.766Z,4.44
2022-12-04T09:11:30.655Z,4.57
2022-12-04T09:14:02.463Z,4.74
2022-12-04T09:16:29.989Z,4.45
2022-12-04T09:18:57.541Z,4.27
2022-12-04T09:21:27.977Z,4.57
2022-12-04T09:23:54.972Z,4.65
2022-12-04T09:26:28.987Z,4.65
2022-12-04T09:29:00.761Z,4.80
2022-12-04T09:31:28.301Z,4.96
2022-12-04T09:33:55.431Z,4.74
2022-12-04T09:36:22.517Z,4.86
2022-12-04T09:38:55.265Z,4.71
2022-12-04T09:42:13.434Z,4.50
2022-12-04T09:44:48.653Z,4.50
2022-12-04T09:47:31.717Z,4.72
2022-12-04T09:50:15.216Z,4.68
2022-12-04T09:53:04.159Z,4.52
2022-12-04T09:55:58.624Z,4.79
2022-12-04T09:59:02.983Z,4.99
2022-12-04T10:02:10.611Z,4.99
2022-12-04T10:04:37.648Z,4.97
2022-12-04T10:07:24.640Z,4.70
2022-12-04T10:10:06.877Z,4.81
2022-12-04T10:13:01.481Z,4.96
2022-12-04T10:15:42.358Z,5.01
2022-12-04T10:18:52.468Z,4.92
2022-12-04T10:21:45.538Z,5.07
2022-12-04T10:24:31.589Z,5.21
2022-12-04T10:27:02.504Z,5.09
2022-12-04T10:29:39.163Z,4.93
2022-12-04T10:32:32.032Z,5.03
2022-12-04T10:35:22.950Z,4.77
2022-12-04T10:38:03.992Z,4.61
2022-12-04T10:40:49.669Z,4.75
2022-12-04T10:43:43.729Z,4.90
2022-12-04T10:46:25.099Z,5.22
2022-12-04T10:48:58.518Z,5.41
2022-12-04T10:51:38.382Z,5.36
2022-12-04T10:55:01.321Z,5.36
2022-12-04T10:57:54.677Z,5.37
2022-12-04T11:00:36.227Z,5.48
2022-12-04T11:03:12.852Z,5.50
2022-12-04T11:05:56.914Z,5.41
2022-12-04T11:08:50.100Z,5.43
2022-12-04T11:11:34.604Z,5.44
2022-12-04T11:14:15.043Z,5.47
2022-12-04T11:16:48.382Z,5.35
2022-12-04T11:19:26.076Z,5.36
2022-12-04T11:22:04.238Z,5.51
2022-12-04T11:24:37.982Z,5.47
2022-12-04T11:27:07.288Z,5.51
2022-12-04T11:29:42.003Z,5.36
2022-12-04T11:32:34.761Z,5.60
2022-12-04T11:35:24.222Z,5.53
2022-12-04T11:38:17.585Z,5.51
2022-12-04T11:41:06.587Z,5.58
2022-12-04T11:43:48.895Z,5.55
2022-12-04T11:46:23.733Z,5.64
2022-12-04T11:48:55.658Z,5.66
2022-12-04T11:52:09.098Z,5.71
2022-12-04T11:55:12.389Z,5.73
2022-12-04T11:58:09.406Z,5.37
2022-12-04T12:00:50.972Z,5.47
2022-12-04T12:03:37.606Z,5.59
2022-12-04T12:06:26.544Z,5.62
2022-12-04T12:09:08.517Z,5.65
2022-12-04T12:11:56.631Z,5.52
2022-12-04T12:14:41.277Z,5.66
2022-12-04T12:17:27.251Z,5.82
2022-12-04T12:20:15.554Z,5.28
2022-12-04T12:22:53.826Z,5.61
2022-12-04T12:26:12.090Z,5.53
2022-12-04T12:29:09.007Z,5.68
2022-12-04T12:32:03.620Z,5.71
2022-12-04T12:34:44.932Z,5.72
2022-12-04T12:37:41.873Z,5.56
2022-12-04T12:40:25.526Z,5.69
2022-12-04T12:42:58.693Z,5.77
2022-12-04T12:46:06.895Z,5.58
2022-12-04T12:49:20.967Z,5.70
2022-12-04T12:52:06.524Z,5.80
2022-12-04T12:54:39.425Z,5.75
2022-12-04T12:57:20.817Z,5.53
2022-12-04T12:59:56.537Z,5.53
2022-12-04T13:02:30.343Z,5.55
2022-12-04T13:05:11.295Z,5.57
2022-12-04T13:07:56.495Z,5.32
2022-12-04T13:10:31.884Z,5.51
2022-12-04T13:13:06.213Z,5.52
2022-12-04T13:15:54.231Z,5.56
2022-12-04T13:18:49.245Z,5.37
2022-12-04T13:21:42.540Z,5.53
2022-12-04T13:24:43.555Z,5.79
2022-12-04T13:27:41.060Z,5.75
2022-12-04T13:30:23.751Z,5.72
2022-12-04T13:33:11.538Z,5.80
2022-12-04T13:35:59.336Z,5.64
2022-12-04T13:38:31.991Z,5.46
2022-12-04T13:41:04.618Z,5.60
2022-12-04T13:43:45.781Z,5.88
2022-12-04T13:46:34.056Z,5.92
2022-12-04T13:49:18.172Z,5.84
2022-12-04T13:51:50.653Z,5.91
2022-12-04T13:54:17.525Z,5.80
2022-12-04T13:56:52.052Z,5.62
2022-12-04T13:59:28.287Z,5.60
2022-12-04T14:02:06.608Z,5.67
2022-12-04T14:04:59.540Z,5.74
2022-12-04T14:07:37.551Z,5.87
2022-12-04T14:10:16.978Z,5.79
2022-12-04T14:13:20.861Z,5.88
2022-12-04T14:15:50.474Z,5.97
2022-12-04T14:18:29.572Z,6.02
2022-12-04T14:21:05.488Z,6.11
2022-12-04T14:23:42.149Z,6.02
2022-12-04T14:26:48.899Z,6.06
2022-12-04T14:29:30.699Z,5.45
2022-12-04T14:32:16.876Z,5.64
2022-12-04T14:34:48.252Z,5.99
2022-12-04T14:37:25.669Z,5.83
2022-12-04T14:39:55.736Z,5.76
2022-12-04T14:42:26.841Z,5.74
2022-12-04T14:45:03.527Z,5.80
2022-12-04T14:48:22.196Z,5.68
2022-12-04T14:51:17.100Z,5.99
2022-12-04T14:54:23.662Z,5.98
2022-12-04T14:57:33.753Z,6.07
2022-12-04T15:00:01.666Z,6.22
2022-12-04T15:02:40.213Z,6.15
2022-12-04T15:05:30.629Z,6.35
2022-12-04T15:08:01.831Z,6.39
2022-12-04T15:10:51.317Z,6.26
2022-12-04T15:13:33.741Z,6.21
2022-12-04T15:16:23.499Z,6.05
2022-12-04T15:19:01.074Z,5.93
2022-12-04T15:21:40.395Z,5.84
2022-12-04T15:24:23.378Z,5.66
2022-12-04T15:26:54.311Z,5.70
2022-12-04T15:29:26.481Z,6.10
2022-12-04T15:31:58.810Z,6.01
2022-12-04T15:34:50.132Z,6.04
2022-12-04T15:37:27.703Z,5.88
2022-12-04T15:39:56.009Z,5.89
2022-12-04T15:42:23.150Z,5.69
2022-12-04T15:45:09.871Z,5.74
2022-12-04T15:47:42.517Z,5.78
2022-12-04T15:50:15.521Z,5.92
2022-12-04T15:52:58.944Z,6.18
2022-12-04T15:55:30.532Z,5.89
2022-12-04T15:58:39.434Z,5.94
2022-12-04T16:01:09.118Z,5.73
2022-12-04T16:03:42.436Z,5.91
2022-12-04T16:06:22.933Z,5.88
2022-12-04T16:09:09.817Z,6.04
2022-12-04T16:11:41.896Z,6.23
2022-12-04T16:14:08.773Z,6.08
2022-12-04T16:16:49.729Z,6.08
2022-12-04T16:19:31.619Z,5.87
2022-12-04T16:21:59.485Z,5.87
2022-12-04T16:24:29.138Z,5.99
2022-12-04T16:26:58.684Z,5.98
2022-12-04T16:29:30.478Z,5.97
2022-12-04T16:32:02.948Z,6.13
2022-12-04T16:34:30.974Z,6.09
2022-12-04T16:37:01.025Z,6.02
2022-12-04T16:39:27.961Z,5.94
2022-12-04T16:41:54.848Z,6.03
2022-12-04T16:44:24.771Z,6.12
2022-12-04T16:46:53.800Z,6.13
2022-12-04T16:49:20.692Z,6.26
2022-12-04T16:51:51.372Z,6.24
2022-12-04T16:54:21.019Z,6.09
2022-12-04T16:56:47.930Z,6.13
2022-12-04T16:59:15.095Z,6.10
2022-12-04T17:01:48.391Z,6.22
2022-12-04T17:04:16.964Z,6.12
2022-12-04T17:06:48.845Z,6.14
2022-12-04T17:09:16.533Z,6.39
2022-12-04T17:11:44.309Z,6.46
2022-12-04T17:14:11.557Z,6.54
2022-12-04T17:16:45.057Z,6.36
2022-12-04T17:19:14.043Z,6.36
2022-12-04T17:21:45.504Z,6.29
2022-12-04T17:24:13.374Z,6.20
2022-12-04T17:26:41.079Z,6.51
2022-12-04T17:29:08.214Z,6.59
2022-12-04T17:31:35.741Z,6.49
2022-12-04T17:34:07.558Z,6.49
2022-12-04T17:36:35.332Z,6.58
2022-12-04T17:39:11.770Z,6.80
2022-12-04T17:41:41.153Z,6.78
2022-12-04T17:44:08.160Z,6.49
2022-12-04T17:46:37.188Z,6.64
2022-12-04T17:49:07.327Z,6.45
2022-12-04T17:51:35.904Z,6.53
2022-12-04T17:54:06.118Z,6.40
2022-12-04T17:56:34.558Z,6.22
2022-12-04T17:59:05.514Z,6.21
2022-12-04T18:01:33.032Z,6.21
2022-12-04T18:04:04.464Z,6.38
2022-12-04T18:06:38.437Z,6.15
2022-12-04T18:09:10.348Z,6.31
2022-12-04T18:11:40.891Z,6.17
2022-12-04T18:14:15.044Z,6.33
2022-12-04T18:16:52.997Z,6.33
2022-12-04T18:19:25.590Z,6.27
2022-12-04T18:21:54.045Z,6.26
2022-12-04T18:24:22.814Z,6.06
2022-12-04T18:26:51.540Z,6.29
2022-12-04T18:29:25.301Z,6.45
2022-12-04T18:31:52.878Z,6.14
2022-12-04T18:34:22.713Z,6.46
2022-12-04T18:36:50.827Z,6.56
2022-12-04T18:39:21.859Z,6.46
2022-12-04T18:41:49.500Z,6.66
2022-12-04T18:44:17.812Z,6.51
2022-12-04T18:46:45.448Z,6.20
2022-12-04T18:49:14.981Z,6.29
2022-12-04T18:51:50.021Z,6.29
2022-12-04T18:54:25.299Z,6.20
2022-12-04T18:56:54.729Z,6.33
2022-12-04T18:59:24.970Z,6.33
2022-12-04T19:01:53.828Z,6.21
2022-12-04T19:04:24.075Z,6.38
2022-12-04T19:06:55.795Z,6.35
2022-12-04T19:09:54.389Z,6.50
2022-12-04T19:12:18.451Z,6.38
2022-12-04T19:14:47.589Z,6.45
2022-12-04T19:17:16.914Z,6.13
2022-12-04T19:19:46.284Z,6.12
2022-12-04T19:22:13.483Z,6.21
2022-12-04T19:24:43.689Z,6.28
2022-12-04T19:27:11.999Z,6.31
2022-12-04T19:29:41.570Z,5.92
2022-12-04T19:32:10.380Z,6.00
2022-12-04T19:34:38.041Z,6.22
2022-12-04T19:37:07.542Z,6.54
2022-12-04T19:39:34.479Z,6.40
2022-12-04T19:42:01.449Z,6.32
2022-12-04T19:47:15.463Z,6.08
2022-12-04T19:49:44.461Z,6.05
2022-12-04T19:52:18.660Z,5.82
2022-12-04T19:54:45.666Z,6.03
2022-12-04T19:57:15.376Z,6.24
2022-12-04T19:59:46.189Z,6.29
2022-12-04T20:02:14.577Z,6.19
2022-12-04T20:04:41.772Z,6.30
2022-12-04T20:07:09.193Z,6.09
2022-12-04T20:09:38.761Z,5.73
2022-12-04T20:12:06.048Z,5.98
2022-12-04T20:14:33.081Z,6.02
2022-12-04T20:17:04.069Z,6.03
2022-12-04T20:19:31.297Z,6.24
2022-12-04T20:21:59.548Z,6.19
2022-12-04T20:24:29.802Z,6.30
2022-12-04T20:26:56.882Z,6.50
2022-12-04T20:29:26.106Z,6.52
2022-12-04T20:31:53.138Z,6.15
2022-12-04T20:34:20.242Z,6.14
2022-12-04T20:36:49.053Z,6.17
2022-12-04T20:39:22.008Z,6.15
2022-12-04T20:41:49.153Z,6.09
2022-12-04T20:44:19.873Z,5.80
2022-12-04T20:46:47.516Z,6.23
2022-12-04T20:49:22.289Z,6.31
2022-12-04T20:51:54.753Z,6.32
2022-12-04T20:54:23.388Z,6.44
2022-12-04T20:56:53.445Z,6.14
2022-12-04T20:59:24.806Z,6.29
2022-12-04T21:01:52.820Z,6.53
2022-12-04T21:04:20.856Z,6.51
2022-12-04T21:06:48.002Z,6.35
2022-12-04T21:09:25.131Z,6.42
2022-12-04T21:11:54.998Z,6.46
2022-12-04T21:14:44.594Z,6.41
2022-12-04T21:17:21.523Z,6.50
2022-12-04T21:19:52.702Z,6.77
2022-12-04T21:22:22.903Z,6.64
2022-12-04T21:24:49.857Z,6.48
2022-12-04T21:27:20.965Z,6.47
2022-12-04T21:29:49.030Z,6.58
2022-12-04T21:32:16.459Z,6.40
2022-12-04T21:34:43.271Z,6.51
2022-12-04T21:37:10.238Z,6.49
2022-12-04T21:39:37.246Z,6.39
2022-12-04T21:42:23.069Z,6.33
2022-12-04T21:44:50.031Z,6.48
2022-12-04T21:47:21.836Z,6.62
2022-12-04T21:49:49.011Z,6.63
2022-12-04T21:52:17.390Z,6.38
2022-12-04T21:54:44.926Z,6.36
2022-12-04T21:57:11.943Z,6.61
2022-12-04T21:59:38.991Z,6.51
2022-12-04T22:02:08.367Z,6.57
2022-12-04T22:04:38.188Z,6.41
2022-12-04T22:07:08.268Z,6.71
2022-12-04T22:09:38.942Z,6.57
2022-12-04T22:12:26.408Z,6.72
2022-12-04T22:14:55.001Z,6.58
2022-12-04T22:17:24.186Z,6.51
2022-12-04T22:19:51.023Z,6.51
2022-12-04T22:22:20.772Z,6.58
2022-12-04T22:24:50.572Z,6.75
2022-12-04T22:27:22.306Z,6.92
2022-12-04T22:29:51.072Z,6.89
2022-12-04T22:32:19.642Z,6.77
2022-12-04T22:34:49.114Z,6.57
2022-12-04T22:37:16.195Z,6.51
2022-12-04T22:39:43.114Z,6.68
2022-12-04T22:42:14.635Z,6.53
2022-12-04T22:44:44.393Z,6.58
2022-12-04T22:47:15.967Z,6.52
2022-12-04T22:49:42.955Z,6.39
2022-12-04T22:52:12.403Z,6.49
2022-12-04T22:54:39.363Z,6.69
2022-12-04T22:57:07.801Z,6.59
2022-12-04T22:59:34.725Z,6.80
2022-12-04T23:02:01.757Z,6.69
2022-12-04T23:04:30.080Z,6.94
2022-12-04T23:06:58.034Z,6.75
2022-12-04T23:09:28.368Z,6.66
2022-12-04T23:11:56.377Z,6.80
2022-12-04T23:14:27.202Z,6.82
2022-12-04T23:16:54.877Z,6.51
2022-12-04T23:19:31.371Z,6.67
2022-12-04T23:21:58.997Z,6.63
2022-12-04T23:24:28.757Z,6.44
2022-12-04T23:26:58.375Z,6.65
2022-12-04T23:32:14.676Z,6.87
2022-12-04T23:34:43.825Z,6.78
2022-12-04T23:37:13.339Z,6.89
2022-12-04T23:39:40.282Z,6.83
2022-12-04T23:42:07.374Z,6.53
2022-12-04T23:44:38.118Z,6.70
2022-12-04T23:47:05.331Z,6.75
2022-12-04T23:49:37.910Z,6.83
2022-12-04T23:52:06.903Z,6.88
2022-12-04T23:54:35.964Z,6.83
2022-12-04T23:57:03.064Z,6.96
2022-12-04T23:59:30.122Z,7.04
